createdAt,value
2023-08-15T00:01:05.927Z,10.50
2023-08-15T00:03:27.794Z,11.95
2023-08-15T00:05:49.526Z,9.98
2023-08-15T00:08:11.161Z,12.95
2023-08-15T00:10:32.872Z,9.48
2023-08-15T00:12:54.550Z,11.35
2023-08-15T00:15:16.313Z,9.05
2023-08-15T00:17:38.006Z,10.25
2023-08-15T00:19:59.736Z,10.32
2023-08-15T00:22:21.406Z,11.38
2023-08-15T00:24:43.086Z,10.35
2023-08-15T00:27:04.792Z,12.13
2023-08-15T00:29:26.442Z,10.57
2023-08-15T00:31:48.166Z,10.85
2023-08-15T00:34:09.905Z,10.77
2023-08-15T00:36:31.649Z,9.68
2023-08-15T00:38:53.982Z,11.18
2023-08-15T00:41:15.643Z,10.05
2023-08-15T00:43:37.451Z,11.65
2023-08-15T00:46:03.419Z,10.50
2023-08-15T00:48:30.923Z,11.32
2023-08-15T00:50:52.657Z,9.35
2023-08-15T00:53:14.512Z,10.15
2023-08-15T00:55:36.559Z,9.10
2023-08-15T00:57:58.836Z,11.13
2023-08-15T01:00:20.785Z,12.25
2023-08-15T01:02:43.510Z,9.00
2023-08-15T01:05:06.261Z,11.25
2023-08-15T01:07:28.150Z,9.60
2023-08-15T01:09:49.812Z,9.50
2023-08-15T01:12:32.577Z,10.18
2023-08-15T01:15:04.655Z,8.95
2023-08-15T01:17:45.479Z,10.52
2023-08-15T01:20:21.503Z,10.18
2023-08-15T01:22:49.185Z,9.38
2023-08-15T01:25:11.175Z,10.75
2023-08-15T01:27:32.819Z,10.25
2023-08-15T01:29:54.920Z,10.38
2023-08-15T01:32:43.777Z,9.48
2023-08-15T01:35:37.666Z,9.85
2023-08-15T01:38:11.413Z,8.07
2023-08-15T01:40:36.753Z,10.88
2023-08-15T01:43:01.640Z,10.65
2023-08-15T01:45:25.724Z,10.75
2023-08-15T01:47:52.690Z,10.93
2023-08-15T01:50:14.356Z,11.05
2023-08-15T01:52:36.552Z,10.43
2023-08-15T01:54:58.244Z,11.98
2023-08-15T01:57:20.250Z,11.55
2023-08-15T01:59:44.878Z,11.15
2023-08-15T02:02:07.942Z,10.07
2023-08-15T02:04:29.612Z,9.30
2023-08-15T02:06:52.493Z,9.20
2023-08-15T02:09:14.190Z,9.15
2023-08-15T02:11:36.036Z,10.35
2023-08-15T02:13:59.554Z,9.60
2023-08-15T02:16:21.286Z,9.77
2023-08-15T02:18:42.982Z,8.68
2023-08-15T02:21:05.391Z,9.93
2023-08-15T02:23:27.036Z,8.98
2023-08-15T02:25:48.952Z,9.95
2023-08-15T02:28:10.630Z,11.50
2023-08-15T02:30:38.167Z,7.15
2023-08-15T02:32:59.826Z,7.88
2023-08-15T02:35:21.595Z,8.30
2023-08-15T02:37:43.340Z,7.60
2023-08-15T02:40:07.456Z,9.10
2023-08-15T02:42:29.126Z,5.93
2023-08-15T02:44:51.096Z,6.38
2023-08-15T02:47:13.456Z,9.73
2023-08-15T02:49:35.140Z,6.07
2023-08-15T02:51:56.818Z,6.47
2023-08-15T02:54:18.546Z,5.13
2023-08-15T02:56:40.179Z,7.72
2023-08-15T02:59:01.983Z,6.70
2023-08-15T03:01:24.724Z,8.55
2023-08-15T03:03:46.423Z,8.82
2023-08-15T03:06:08.068Z,9.73
2023-08-15T03:08:31.176Z,6.18
2023-08-15T03:10:53.515Z,6.20
2023-08-15T03:13:15.195Z,7.05
2023-08-15T03:15:37.749Z,6.95
2023-08-15T03:17:59.706Z,5.32
2023-08-15T03:20:22.248Z,8.00
2023-08-15T03:22:44.693Z,9.45
2023-08-15T03:25:07.259Z,8.30
2023-08-15T03:27:28.925Z,9.15
2023-08-15T03:29:50.886Z,7.10
2023-08-15T03:32:12.617Z,9.18
2023-08-15T03:34:34.465Z,8.90
2023-08-15T03:36:57.657Z,5.95
2023-08-15T03:39:19.308Z,9.77
2023-08-15T03:41:40.992Z,9.13
2023-08-15T03:44:02.755Z,9.02
2023-08-15T03:46:25.093Z,7.82
2023-08-15T03:48:49.097Z,8.02
2023-08-15T03:51:12.918Z,9.68
2023-08-15T03:53:38.194Z,7.75
2023-08-15T03:56:00.220Z,10.38
2023-08-15T03:58:22.993Z,9.43
2023-08-15T04:00:45.738Z,7.55
2023-08-15T04:03:07.497Z,10.98
2023-08-15T04:05:29.140Z,7.03
2023-08-15T04:07:51.204Z,8.15
2023-08-15T04:10:14.605Z,8.70
2023-08-15T04:12:36.494Z,11.43
2023-08-15T04:14:58.250Z,7.65
2023-08-15T04:17:20.072Z,8.27
2023-08-15T04:19:41.908Z,9.40
2023-08-15T04:22:03.613Z,10.75
2023-08-15T04:24:25.339Z,9.07
2023-08-15T04:26:47.019Z,12.18
2023-08-15T04:29:08.977Z,9.00
2023-08-15T04:31:30.660Z,9.93
2023-08-15T04:33:52.309Z,9.90
2023-08-15T04:36:14.059Z,11.20
2023-08-15T04:38:35.725Z,8.93
2023-08-15T04:40:59.226Z,9.85
2023-08-15T04:45:45.301Z,11.13
2023-08-15T04:48:12.497Z,11.35
2023-08-15T04:50:34.185Z,8.85
2023-08-15T04:52:55.928Z,8.90
2023-08-15T04:55:18.970Z,7.03
2023-08-15T04:57:41.322Z,13.13
2023-08-15T05:00:04.497Z,10.35
2023-08-15T05:02:26.245Z,12.27
2023-08-15T05:04:47.959Z,12.13
2023-08-15T05:07:09.725Z,12.30
2023-08-15T05:09:31.617Z,12.55
2023-08-15T05:11:53.291Z,13.93
2023-08-15T05:14:16.266Z,8.80
2023-08-15T05:16:37.906Z,10.32
2023-08-15T05:18:59.709Z,8.48
2023-08-15T05:21:21.507Z,7.95
2023-08-15T05:23:43.202Z,13.90
2023-08-15T05:26:04.923Z,13.23
2023-08-15T05:28:26.830Z,13.02
2023-08-15T05:30:48.711Z,12.60
2023-08-15T05:33:10.435Z,13.95
2023-08-15T05:35:32.686Z,15.05
2023-08-15T05:37:55.027Z,10.80
2023-08-15T05:40:17.249Z,11.57
2023-08-15T05:42:38.955Z,11.38
2023-08-15T05:45:00.616Z,8.70
2023-08-15T05:47:22.528Z,13.00
2023-08-15T05:49:44.517Z,8.65
2023-08-15T05:52:06.324Z,10.98
2023-08-15T05:54:28.450Z,11.32
2023-08-15T05:56:50.171Z,10.23
2023-08-15T05:59:11.837Z,8.88
2023-08-15T06:01:34.363Z,12.10
2023-08-15T06:03:56.187Z,12.38
2023-08-15T06:06:18.055Z,13.05
2023-08-15T06:08:39.734Z,9.57
2023-08-15T06:11:01.361Z,11.30
2023-08-15T06:13:23.066Z,10.05
2023-08-15T06:15:45.547Z,8.38
2023-08-15T06:18:07.245Z,11.35
2023-08-15T06:20:29.318Z,7.38
2023-08-15T06:22:51.119Z,9.35
2023-08-15T06:25:12.873Z,11.23
2023-08-15T06:27:34.785Z,14.68
2023-08-15T06:29:56.576Z,10.30
2023-08-15T06:32:30.414Z,11.43
2023-08-15T06:34:52.109Z,10.27
2023-08-15T06:37:14.582Z,10.63
2023-08-15T06:39:36.332Z,11.65
2023-08-15T06:41:57.978Z,12.27
2023-08-15T06:44:19.657Z,9.50
2023-08-15T06:46:41.386Z,11.90
2023-08-15T06:49:03.233Z,15.15
2023-08-15T06:51:24.942Z,14.80
2023-08-15T06:53:46.729Z,11.55
2023-08-15T06:56:10.881Z,13.82
2023-08-15T06:58:32.527Z,13.52
2023-08-15T07:00:55.402Z,10.57
2023-08-15T07:03:17.910Z,8.88
2023-08-15T07:05:39.603Z,10.15
2023-08-15T07:08:04.382Z,13.43
2023-08-15T07:10:26.550Z,10.85
2023-08-15T07:12:48.166Z,9.80
2023-08-15T07:15:10.196Z,12.35
2023-08-15T07:17:32.159Z,10.10
2023-08-15T07:19:54.443Z,10.57
2023-08-15T07:22:16.342Z,11.23
2023-08-15T07:24:37.989Z,13.30
2023-08-15T07:26:59.664Z,9.77
2023-08-15T07:29:21.398Z,9.50
2023-08-15T07:31:43.116Z,9.45
2023-08-15T07:34:04.811Z,10.00
2023-08-15T07:36:26.580Z,10.48
2023-08-15T07:38:48.223Z,10.50
2023-08-15T07:41:09.881Z,11.93
2023-08-15T07:43:31.585Z,9.57
2023-08-15T07:45:53.328Z,12.07
2023-08-15T07:48:14.998Z,11.68
2023-08-15T07:50:37.180Z,9.45
2023-08-15T07:52:59.669Z,9.82
2023-08-15T07:55:22.869Z,9.82
2023-08-15T07:57:45.139Z,6.57
2023-08-15T08:00:09.268Z,11.80
2023-08-15T08:02:45.294Z,9.23
2023-08-15T08:05:09.010Z,7.90
2023-08-15T08:07:32.240Z,10.77
2023-08-15T08:09:53.878Z,10.10
2023-08-15T08:12:16.363Z,10.20
2023-08-15T08:14:44.979Z,10.07
2023-08-15T08:17:14.073Z,10.57
2023-08-15T08:19:35.837Z,8.65
2023-08-15T08:21:57.485Z,8.02
2023-08-15T08:24:19.295Z,9.50
2023-08-15T08:26:42.055Z,8.43
2023-08-15T08:29:03.861Z,12.32
2023-08-15T08:31:25.542Z,10.40
2023-08-15T08:33:48.102Z,8.43
2023-08-15T08:36:09.736Z,11.40
2023-08-15T08:38:31.443Z,9.15
2023-08-15T08:40:56.744Z,7.30
2023-08-15T08:43:19.799Z,11.15
2023-08-15T08:45:47.848Z,10.15
2023-08-15T08:48:10.777Z,9.50
2023-08-15T08:50:33.552Z,9.50
2023-08-15T08:52:55.260Z,6.68
2023-08-15T08:55:18.502Z,9.77
2023-08-15T08:57:42.563Z,9.48
2023-08-15T09:00:08.948Z,10.30
2023-08-15T09:02:31.158Z,8.48
2023-08-15T09:04:56.074Z,10.27
2023-08-15T09:07:17.862Z,10.55
2023-08-15T09:09:39.567Z,7.47
2023-08-15T09:12:01.239Z,8.27
2023-08-15T09:14:23.614Z,6.72
2023-08-15T09:16:50.735Z,10.55
2023-08-15T09:19:12.434Z,9.18
2023-08-15T09:21:34.952Z,11.93
2023-08-15T09:23:58.428Z,9.35
2023-08-15T09:26:20.084Z,7.55
2023-08-15T09:28:44.855Z,9.07
2023-08-15T09:31:06.652Z,9.70
2023-08-15T09:33:30.740Z,9.77
2023-08-15T09:35:58.658Z,10.20
2023-08-15T09:38:20.866Z,9.88
2023-08-15T09:40:46.533Z,10.80
2023-08-15T09:43:09.416Z,10.73
2023-08-15T09:45:31.387Z,5.82
2023-08-15T09:47:53.549Z,9.93
2023-08-15T09:50:17.227Z,7.85
2023-08-15T09:52:42.189Z,12.15
2023-08-15T09:55:04.337Z,8.25
2023-08-15T09:57:26.160Z,8.15
2023-08-15T09:59:48.140Z,12.00
2023-08-15T10:02:24.057Z,9.45
2023-08-15T10:04:50.716Z,9.25
2023-08-15T10:07:12.628Z,12.65
2023-08-15T10:09:34.421Z,7.78
2023-08-15T10:11:59.321Z,8.38
2023-08-15T10:14:23.262Z,8.15
2023-08-15T10:16:45.687Z,7.93
2023-08-15T10:19:15.369Z,6.72
2023-08-15T10:21:54.358Z,8.00
2023-08-15T10:24:16.131Z,8.88
2023-08-15T10:26:39.694Z,6.95
2023-08-15T10:29:03.339Z,7.20
2023-08-15T10:31:45.424Z,8.13
2023-08-15T10:34:11.973Z,8.07
2023-08-15T10:36:34.753Z,8.13
2023-08-15T10:38:56.518Z,5.75
2023-08-15T10:41:19.201Z,7.30
2023-08-15T10:43:48.257Z,8.27
2023-08-15T10:46:10.693Z,9.00
2023-08-15T10:49:03.447Z,10.38
2023-08-15T10:51:36.516Z,9.10
2023-08-15T10:54:02.164Z,6.80
2023-08-15T10:56:27.264Z,9.85
2023-08-15T10:58:51.331Z,7.22
2023-08-15T11:01:22.656Z,7.50
2023-08-15T11:03:47.912Z,5.47
2023-08-15T11:06:12.693Z,6.65
2023-08-15T11:08:34.525Z,8.57
2023-08-15T11:10:56.262Z,6.93
2023-08-15T11:13:18.696Z,7.60
2023-08-15T11:15:40.724Z,7.00
2023-08-15T11:18:02.654Z,7.80
2023-08-15T11:20:30.212Z,8.45
2023-08-15T11:23:01.213Z,7.63
2023-08-15T11:25:23.041Z,6.30
2023-08-15T11:27:46.443Z,10.57
2023-08-15T11:30:10.011Z,8.68
2023-08-15T11:32:31.893Z,6.15
2023-08-15T11:34:54.665Z,7.28
2023-08-15T11:37:18.112Z,6.40
2023-08-15T11:39:40.336Z,7.32
2023-08-15T11:42:02.340Z,7.22
2023-08-15T11:44:24.089Z,6.57
2023-08-15T11:46:53.734Z,8.00
2023-08-15T11:49:24.869Z,7.53
2023-08-15T11:51:47.893Z,7.03
2023-08-15T11:54:09.724Z,5.03
2023-08-15T11:56:51.908Z,6.32
2023-08-15T11:59:19.814Z,6.10
2023-08-15T12:01:44.874Z,7.15
2023-08-15T12:04:08.916Z,6.95
2023-08-15T12:06:31.790Z,5.93
2023-08-15T12:08:53.687Z,7.30
2023-08-15T12:11:21.747Z,8.70
2023-08-15T12:13:43.544Z,5.63
2023-08-15T12:16:08.134Z,6.55
2023-08-15T12:18:31.489Z,7.80
2023-08-15T12:23:23.128Z,5.75
2023-08-15T12:25:49.099Z,7.55
2023-08-15T12:28:11.686Z,5.95
2023-08-15T12:30:33.972Z,5.88
2023-08-15T12:32:55.785Z,6.45
2023-08-15T12:35:17.624Z,6.35
2023-08-15T12:37:39.268Z,4.70
2023-08-15T12:40:01.169Z,6.07
2023-08-15T12:42:23.454Z,5.20
2023-08-15T12:44:45.413Z,5.60
2023-08-15T12:47:07.201Z,7.20
2023-08-15T12:49:29.102Z,6.30
2023-08-15T12:51:50.848Z,6.95
2023-08-15T12:54:12.978Z,8.25
2023-08-15T12:56:36.321Z,7.72
2023-08-15T12:58:58.234Z,7.82
2023-08-15T13:01:20.220Z,6.40
2023-08-15T13:03:42.986Z,4.88
2023-08-15T13:06:04.829Z,8.18
2023-08-15T13:08:26.800Z,6.80
2023-08-15T13:10:48.893Z,8.27
2023-08-15T13:13:10.601Z,5.03
2023-08-15T13:15:32.343Z,8.00
2023-08-15T13:17:55.710Z,7.07
2023-08-15T13:20:17.666Z,6.50
2023-08-15T13:22:39.492Z,6.88
2023-08-15T13:25:01.280Z,5.10
2023-08-15T13:27:23.070Z,5.32
2023-08-15T13:29:46.333Z,4.75
2023-08-15T13:32:08.150Z,5.07
2023-08-15T13:34:29.961Z,5.57
2023-08-15T13:36:51.637Z,6.53
2023-08-15T13:39:13.376Z,5.55
2023-08-15T13:41:35.925Z,7.45
2023-08-15T13:43:58.932Z,8.57
2023-08-15T13:46:20.867Z,7.60
2023-08-15T13:48:42.499Z,6.15
2023-08-15T13:51:05.286Z,5.68
2023-08-15T13:53:27.058Z,6.63
2023-08-15T13:55:48.692Z,6.72
2023-08-15T13:58:10.307Z,6.07
2023-08-15T14:00:33.756Z,6.45
2023-08-15T14:02:55.660Z,6.45
2023-08-15T14:05:17.432Z,4.50
2023-08-15T14:07:39.100Z,4.88
2023-08-15T14:10:01.086Z,3.85
2023-08-15T14:12:23.710Z,4.78
2023-08-15T14:14:45.907Z,4.75
2023-08-15T14:17:07.666Z,7.00
2023-08-15T14:19:29.386Z,3.97
2023-08-15T14:21:51.078Z,3.00
2023-08-15T14:24:12.834Z,4.53
2023-08-15T14:26:34.450Z,5.35
2023-08-15T14:28:56.211Z,5.07
2023-08-15T14:31:18.094Z,6.97
2023-08-15T14:33:39.779Z,5.78
2023-08-15T14:36:01.498Z,4.65
2023-08-15T14:38:23.378Z,6.20
2023-08-15T14:40:45.010Z,5.45
2023-08-15T14:43:06.663Z,4.60
2023-08-15T14:45:28.572Z,5.93
2023-08-15T14:47:50.401Z,4.78
2023-08-15T14:50:12.335Z,4.40
2023-08-15T14:52:35.017Z,6.82
2023-08-15T14:54:57.618Z,5.82
2023-08-15T14:57:19.495Z,4.82
2023-08-15T14:59:41.354Z,6.18
2023-08-15T15:02:04.226Z,7.45
2023-08-15T15:04:26.649Z,7.77
2023-08-15T15:06:48.423Z,8.00
2023-08-15T15:09:10.478Z,11.07
2023-08-15T15:11:32.362Z,8.95
2023-08-15T15:13:54.085Z,9.82
2023-08-15T15:16:15.901Z,10.10
2023-08-15T15:18:37.586Z,8.13
2023-08-15T15:20:59.662Z,10.73
2023-08-15T15:25:46.483Z,11.25
2023-08-15T15:28:08.379Z,8.55
2023-08-15T15:30:30.217Z,9.95
2023-08-15T15:32:52.334Z,8.07
2023-08-15T15:35:14.294Z,10.13
2023-08-15T15:37:35.992Z,9.48
2023-08-15T15:40:01.161Z,8.45
2023-08-15T15:42:23.133Z,9.32
2023-08-15T15:44:45.026Z,7.60
2023-08-15T15:47:07.085Z,8.70
2023-08-15T15:49:28.905Z,6.35
2023-08-15T15:51:50.818Z,6.90
2023-08-15T15:54:12.971Z,8.90
2023-08-15T15:56:34.931Z,7.05
2023-08-15T15:58:57.057Z,8.05
2023-08-15T16:01:18.854Z,6.45
2023-08-15T16:03:40.771Z,8.63
2023-08-15T16:06:02.623Z,6.10
2023-08-15T16:08:24.448Z,7.38
2023-08-15T16:10:46.134Z,8.18
2023-08-15T16:13:07.854Z,5.88
2023-08-15T16:15:29.806Z,7.65
2023-08-15T16:17:51.653Z,5.50
2023-08-15T16:20:13.879Z,4.30
2023-08-15T16:22:35.694Z,6.15
2023-08-15T16:24:57.593Z,5.07
2023-08-15T16:27:20.794Z,5.00
2023-08-15T16:29:42.617Z,7.00
2023-08-15T16:32:04.628Z,5.68
2023-08-15T16:34:26.348Z,4.57
2023-08-15T16:36:48.527Z,4.60
2023-08-15T16:39:10.234Z,5.60
2023-08-15T16:41:31.982Z,6.30
2023-08-15T16:43:54.113Z,4.65
2023-08-15T16:46:16.583Z,4.47
2023-08-15T16:48:38.620Z,5.90
2023-08-15T16:51:01.114Z,4.75
2023-08-15T16:53:22.896Z,8.68
2023-08-15T16:55:47.160Z,4.38
2023-08-15T16:58:09.178Z,3.70
2023-08-15T17:00:31.550Z,5.00
2023-08-15T17:02:54.039Z,5.03
2023-08-15T17:05:16.638Z,4.30
2023-08-15T17:07:38.483Z,4.15
2023-08-15T17:10:00.644Z,4.80
2023-08-15T17:12:22.514Z,3.13
2023-08-15T17:14:44.614Z,3.83
2023-08-15T17:17:06.278Z,4.38
2023-08-15T17:19:27.925Z,7.07
2023-08-15T17:21:49.660Z,3.85
2023-08-15T17:24:11.360Z,4.60
2023-08-15T17:26:33.040Z,3.35
2023-08-15T17:28:54.890Z,2.30
2023-08-15T17:31:17.013Z,2.55
2023-08-15T17:33:38.700Z,2.90
2023-08-15T17:36:00.459Z,2.58
2023-08-15T17:38:22.097Z,2.95
2023-08-15T17:40:43.902Z,3.58
2023-08-15T17:43:05.687Z,2.80
2023-08-15T17:45:29.005Z,2.60
2023-08-15T17:47:50.817Z,2.92
2023-08-15T17:50:12.516Z,4.28
2023-08-15T17:52:35.765Z,3.95
2023-08-15T17:54:57.534Z,3.05
2023-08-15T17:57:19.164Z,2.65
2023-08-15T17:59:40.967Z,3.28
2023-08-15T18:02:02.786Z,2.22
2023-08-15T18:04:24.518Z,3.60
2023-08-15T18:06:46.214Z,2.40
2023-08-15T18:09:10.077Z,3.15
2023-08-15T18:11:32.220Z,4.75
2023-08-15T18:13:53.980Z,2.92
2023-08-15T18:16:15.693Z,2.78
2023-08-15T18:18:37.336Z,2.72
2023-08-15T18:20:59.004Z,3.28
2023-08-15T18:23:20.709Z,3.30
2023-08-15T18:25:42.365Z,3.92
2023-08-15T18:28:04.506Z,2.90
2023-08-15T18:30:28.518Z,3.95
2023-08-15T18:32:50.273Z,3.20
2023-08-15T18:35:11.993Z,3.35
2023-08-15T18:37:33.823Z,4.13
2023-08-15T18:39:55.469Z,5.50
2023-08-15T18:42:17.139Z,3.95
2023-08-15T18:44:39.960Z,4.82
2023-08-15T18:47:03.491Z,4.47
2023-08-15T18:49:25.379Z,4.75
2023-08-15T18:51:47.106Z,3.50
2023-08-15T18:54:09.004Z,5.32
2023-08-15T18:56:30.827Z,4.97
2023-08-15T18:58:52.604Z,6.75
2023-08-15T19:01:14.717Z,8.05
2023-08-15T19:03:36.540Z,6.20
2023-08-15T19:05:58.578Z,5.57
2023-08-15T19:08:20.211Z,5.10
2023-08-15T19:10:42.066Z,7.63
2023-08-15T19:13:03.895Z,4.88
2023-08-15T19:15:25.684Z,8.50
2023-08-15T19:17:51.655Z,7.72
2023-08-15T19:20:13.556Z,6.07
2023-08-15T19:22:35.447Z,6.07
2023-08-15T19:24:57.187Z,4.75
2023-08-15T19:27:18.864Z,4.60
2023-08-15T19:29:40.765Z,6.22
2023-08-15T19:32:02.659Z,5.65
2023-08-15T19:34:24.414Z,4.10
2023-08-15T19:36:46.171Z,6.15
2023-08-15T19:39:10.347Z,5.13
2023-08-15T19:41:31.993Z,5.03
2023-08-15T19:43:57.268Z,5.00
2023-08-15T19:46:19.047Z,4.78
2023-08-15T19:48:40.878Z,7.25
2023-08-15T19:51:02.648Z,5.32
2023-08-15T19:53:25.176Z,5.50
2023-08-15T19:55:46.805Z,4.88
2023-08-15T19:58:10.398Z,7.43
2023-08-15T20:00:32.199Z,5.75
2023-08-15T20:02:54.030Z,4.78
2023-08-15T20:05:15.908Z,5.10
2023-08-15T20:07:38.701Z,5.68
2023-08-15T20:10:10.652Z,5.78
2023-08-15T20:12:33.818Z,6.18
2023-08-15T20:14:55.475Z,4.18
2023-08-15T20:17:17.291Z,3.10
2023-08-15T20:19:39.023Z,4.78
2023-08-15T20:22:00.858Z,6.82
2023-08-15T20:24:22.537Z,6.63
2023-08-15T20:26:44.421Z,4.82
2023-08-15T20:29:06.186Z,4.95
2023-08-15T20:31:28.068Z,5.05
2023-08-15T20:33:50.038Z,8.13
2023-08-15T20:36:14.585Z,4.43
2023-08-15T20:38:37.392Z,5.47
2023-08-15T20:40:59.086Z,6.10
2023-08-15T20:43:20.798Z,5.15
2023-08-15T20:45:42.842Z,5.88
2023-08-15T20:48:04.877Z,5.32
2023-08-15T20:50:27.664Z,4.75
2023-08-15T20:52:51.169Z,5.35
2023-08-15T20:55:15.001Z,3.97
2023-08-15T20:57:36.617Z,5.55
2023-08-15T21:00:00.144Z,5.73
2023-08-15T21:02:22.229Z,6.35
2023-08-15T21:04:44.215Z,3.85
2023-08-15T21:07:05.966Z,5.20
2023-08-15T21:09:27.747Z,5.68
2023-08-15T21:11:49.448Z,7.03
2023-08-15T21:14:11.186Z,7.53
2023-08-15T21:16:32.908Z,7.10
2023-08-15T21:18:54.707Z,4.40
2023-08-15T21:21:16.371Z,3.95
2023-08-15T21:23:38.308Z,7.63
2023-08-15T21:25:59.963Z,3.80
2023-08-15T21:28:21.599Z,5.18
2023-08-15T21:30:43.950Z,4.20
2023-08-15T21:33:05.769Z,3.75
2023-08-15T21:35:27.729Z,4.78
2023-08-15T21:37:49.357Z,5.30
2023-08-15T21:40:11.852Z,5.68
2023-08-15T21:42:33.615Z,4.78
2023-08-15T21:44:55.267Z,4.97
2023-08-15T21:47:17.021Z,4.78
2023-08-15T21:49:38.787Z,4.43
2023-08-15T21:52:00.536Z,3.33
2023-08-15T21:54:23.503Z,3.97
2023-08-15T21:56:45.197Z,5.50
2023-08-15T21:59:06.882Z,3.47
2023-08-15T22:01:28.635Z,3.30
2023-08-15T22:03:50.373Z,3.47
2023-08-15T22:06:12.177Z,5.15
2023-08-15T22:08:33.952Z,3.35
2023-08-15T22:10:55.604Z,2.90
2023-08-15T22:13:17.332Z,6.25
2023-08-15T22:15:39.070Z,3.00
2023-08-15T22:18:13.381Z,5.22
2023-08-15T22:20:41.768Z,3.55
2023-08-15T22:23:03.449Z,3.35
2023-08-15T22:25:25.679Z,5.13
2023-08-15T22:27:49.818Z,3.38
2023-08-15T22:30:12.269Z,3.97
2023-08-15T22:32:33.995Z,3.53
2023-08-15T22:34:55.754Z,4.60
2023-08-15T22:37:17.445Z,6.43
2023-08-15T22:39:39.082Z,3.63
2023-08-15T22:42:00.826Z,4.70
2023-08-15T22:44:22.518Z,4.10
2023-08-15T22:46:44.442Z,5.05
2023-08-15T22:49:06.289Z,4.40
2023-08-15T22:51:27.924Z,3.63
2023-08-15T22:53:49.603Z,5.38
2023-08-15T22:56:12.408Z,3.80
2023-08-15T22:58:34.133Z,5.40
2023-08-15T23:00:57.615Z,3.78
2023-08-15T23:03:19.312Z,3.67
2023-08-15T23:05:41.073Z,2.83
2023-08-15T23:08:02.695Z,4.63
2023-08-15T23:10:24.380Z,3.80
2023-08-15T23:12:46.053Z,4.43
2023-08-15T23:15:08.523Z,3.33
2023-08-15T23:17:30.273Z,5.32
2023-08-15T23:19:51.950Z,5.50
2023-08-15T23:22:13.615Z,5.28
2023-08-15T23:24:36.068Z,5.65
2023-08-15T23:26:57.881Z,5.45
2023-08-15T23:29:19.599Z,4.53
2023-08-15T23:31:41.242Z,4.65
2023-08-15T23:34:07.610Z,6.03
2023-08-15T23:36:30.186Z,5.43
2023-08-15T23:38:52.229Z,4.38
2023-08-15T23:41:13.862Z,4.70
2023-08-15T23:43:36.732Z,3.97
2023-08-15T23:45:58.375Z,4.50
2023-08-15T23:48:20.052Z,4.88
2023-08-15T23:50:41.842Z,4.38
2023-08-15T23:53:04.557Z,4.88
2023-08-15T23:55:26.270Z,5.35
2023-08-15T23:57:47.980Z,5.18
